createdAt,value
2022-08-10T00:00:58.200Z,26.43
2022-08-10T00:03:27.692Z,26.43
2022-08-10T00:05:56.674Z,26.43
2022-08-10T00:08:26.202Z,26.41
2022-08-10T00:10:54.298Z,26.41
2022-08-10T00:13:22.297Z,26.41
2022-08-10T00:15:53.548Z,26.40
2022-08-10T00:18:34.261Z,26.41
2022-08-10T00:21:06.059Z,26.40
2022-08-10T00:23:34.176Z,26.38
2022-08-10T00:26:02.222Z,26.38
2022-08-10T00:28:31.520Z,26.38
2022-08-10T00:31:01.827Z,26.36
2022-08-10T00:33:29.782Z,26.35
2022-08-10T00:35:57.832Z,26.34
2022-08-10T00:38:27.264Z,26.35
2022-08-10T00:40:55.276Z,26.35
2022-08-10T00:43:24.130Z,26.35
2022-08-10T00:45:58.835Z,26.36
2022-08-10T00:48:29.548Z,26.35
2022-08-10T00:50:57.753Z,26.36
2022-08-10T00:53:27.456Z,26.36
2022-08-10T00:57:14.174Z,26.36
2022-08-10T00:58:43.773Z,26.36
2022-08-10T01:02:07.421Z,26.36
2022-08-10T01:04:54.658Z,26.34
2022-08-10T01:06:54.952Z,26.32
2022-08-10T01:09:27.360Z,26.31
2022-08-10T01:12:39.889Z,26.31
2022-08-10T01:14:49.897Z,26.29
2022-08-10T01:17:20.589Z,26.29
2022-08-10T01:19:54.108Z,26.29
2022-08-10T01:22:30.631Z,26.27
2022-08-10T01:26:10.903Z,26.26
2022-08-10T01:28:45.248Z,26.24
2022-08-10T01:31:17.364Z,26.24
2022-08-10T01:33:58.393Z,26.24
2022-08-10T01:36:31.953Z,26.25
2022-08-10T01:39:01.941Z,26.25
2022-08-10T01:41:40.906Z,26.26
2022-08-10T01:44:16.210Z,26.28
2022-08-10T01:46:56.709Z,26.27
2022-08-10T01:49:24.275Z,26.27
2022-08-10T01:51:52.848Z,26.29
2022-08-10T01:54:22.344Z,26.29
2022-08-10T01:56:51.847Z,26.28
2022-08-10T01:59:22.180Z,26.28
2022-08-10T02:01:52.269Z,26.28
2022-08-10T02:04:21.294Z,26.26
2022-08-10T02:06:51.177Z,26.26
2022-08-10T02:09:20.669Z,26.26
2022-08-10T02:12:05.402Z,26.25
2022-08-10T02:14:36.820Z,26.22
2022-08-10T02:17:07.636Z,26.23
2022-08-10T02:19:36.692Z,26.23
2022-08-10T02:22:37.579Z,26.22
2022-08-10T02:24:53.027Z,26.21
2022-08-10T02:27:21.394Z,26.21
2022-08-10T02:29:49.450Z,26.20
2022-08-10T02:32:36.154Z,26.20
2022-08-10T02:35:20.883Z,26.20
2022-08-10T02:37:51.006Z,26.21
2022-08-10T02:45:14.005Z,26.21
2022-08-10T02:45:20.852Z,26.21
2022-08-10T02:46:02.775Z,26.22
2022-08-10T02:48:35.960Z,26.23
2022-08-10T02:51:06.727Z,26.23
2022-08-10T02:53:55.525Z,26.24
2022-08-10T02:56:26.500Z,26.23
2022-08-10T02:58:58.204Z,26.24
2022-08-10T03:01:31.746Z,26.23
2022-08-10T03:04:02.292Z,26.21
2022-08-10T03:06:34.526Z,26.21
2022-08-10T03:09:03.573Z,26.20
2022-08-10T03:12:35.761Z,26.20
2022-08-10T03:14:20.867Z,26.18
2022-08-10T03:16:48.836Z,26.18
2022-08-10T03:20:34.537Z,26.17
2022-08-10T03:22:06.665Z,26.17
2022-08-10T03:24:34.900Z,26.14
2022-08-10T03:27:02.969Z,26.14
2022-08-10T03:29:31.703Z,26.13
2022-08-10T03:32:19.676Z,26.14
2022-08-10T03:34:49.178Z,26.13
2022-08-10T03:37:17.237Z,26.16
2022-08-10T03:39:45.345Z,26.15
2022-08-10T03:42:13.984Z,26.16
2022-08-10T03:44:45.151Z,26.16
2022-08-10T03:47:16.583Z,26.17
2022-08-10T03:49:44.722Z,26.18
2022-08-10T03:52:14.125Z,26.16
2022-08-10T03:54:43.605Z,26.17
2022-08-10T03:57:11.591Z,26.18
2022-08-10T03:59:39.572Z,26.17
2022-08-10T04:02:41.401Z,26.18
2022-08-10T04:04:55.613Z,26.16
2022-08-10T04:07:25.140Z,26.15
2022-08-10T04:09:56.045Z,26.15
2022-08-10T04:12:24.492Z,26.14
2022-08-10T04:14:53.478Z,26.13
2022-08-10T04:17:59.366Z,26.13
2022-08-10T04:20:17.584Z,26.11
2022-08-10T04:22:47.252Z,26.12
2022-08-10T04:25:15.231Z,26.10
2022-08-10T04:27:43.284Z,26.13
2022-08-10T04:30:11.911Z,26.13
2022-08-10T04:32:39.849Z,26.12
2022-08-10T04:35:11.043Z,26.14
2022-08-10T04:37:46.851Z,26.16
2022-08-10T04:40:29.525Z,26.18
2022-08-10T04:43:07.420Z,26.19
2022-08-10T04:45:48.932Z,26.22
2022-08-10T04:48:42.497Z,26.24
2022-08-10T04:51:10.867Z,26.25
2022-08-10T04:54:05.495Z,26.26
2022-08-10T04:56:32.768Z,26.28
2022-08-10T04:59:00.932Z,26.27
2022-08-10T05:02:27.951Z,26.28
2022-08-10T05:04:36.984Z,26.25
2022-08-10T05:07:05.838Z,26.25
2022-08-10T05:09:33.861Z,26.24
2022-08-10T05:12:23.173Z,26.26
2022-08-10T05:14:52.057Z,26.27
2022-08-10T05:17:20.135Z,26.21
2022-08-10T05:20:04.455Z,26.15
2022-08-10T05:22:35.211Z,26.15
2022-08-10T05:25:03.397Z,26.12
2022-08-10T05:27:33.615Z,26.08
2022-08-10T05:30:03.329Z,26.07
2022-08-10T05:32:32.372Z,25.79
2022-08-10T05:35:02.381Z,25.65
2022-08-10T05:38:09.275Z,25.51
2022-08-10T05:40:18.439Z,25.38
2022-08-10T05:42:47.799Z,25.31
2022-08-10T05:45:19.902Z,25.23
2022-08-10T05:48:41.957Z,25.19
2022-08-10T05:50:35.826Z,25.01
2022-08-10T05:53:58.904Z,24.87
2022-08-10T05:55:51.821Z,24.83
2022-08-10T05:58:21.220Z,24.83
2022-08-10T06:00:53.979Z,24.83
2022-08-10T06:03:25.203Z,24.82
2022-08-10T06:05:53.282Z,24.77
2022-08-10T06:08:21.685Z,24.74
2022-08-10T06:12:25.491Z,24.72
2022-08-10T06:14:13.121Z,24.74
2022-08-10T06:16:42.395Z,24.67
2022-08-10T06:19:10.455Z,24.69
2022-08-10T06:21:39.917Z,24.69
2022-08-10T06:24:30.119Z,24.65
2022-08-10T06:26:58.959Z,24.73
2022-08-10T06:29:28.398Z,24.71
2022-08-10T06:31:56.410Z,24.61
2022-08-10T06:34:28.210Z,24.58
2022-08-10T06:36:56.997Z,24.56
2022-08-10T06:39:34.921Z,24.47
2022-08-10T06:42:15.773Z,24.43
2022-08-10T06:44:54.397Z,24.42
2022-08-10T06:47:24.586Z,24.45
2022-08-10T06:49:53.852Z,24.45
2022-08-10T06:52:29.065Z,24.45
2022-08-10T06:54:57.041Z,24.40
2022-08-10T06:57:26.569Z,24.43
2022-08-10T06:59:55.975Z,24.43
2022-08-10T07:02:31.392Z,24.45
2022-08-10T07:05:01.789Z,24.49
2022-08-10T07:07:31.480Z,24.49
2022-08-10T07:10:01.705Z,24.47
2022-08-10T07:12:29.728Z,24.43
2022-08-10T07:14:59.189Z,24.46
2022-08-10T07:17:27.697Z,24.48
2022-08-10T07:19:57.356Z,24.53
2022-08-10T07:23:27.112Z,24.60
2022-08-10T07:25:16.367Z,24.71
2022-08-10T07:28:00.815Z,24.79
2022-08-10T07:30:31.623Z,24.90
2022-08-10T07:33:00.032Z,24.97
2022-08-10T07:35:31.898Z,24.95
2022-08-10T07:38:05.042Z,24.96
2022-08-10T07:40:33.732Z,24.94
2022-08-10T07:43:01.945Z,24.88
2022-08-10T07:45:32.955Z,24.99
2022-08-10T07:48:07.167Z,25.11
2022-08-10T07:50:36.751Z,25.14
2022-08-10T07:53:06.468Z,25.11
2022-08-10T07:56:02.143Z,25.13
2022-08-10T07:58:24.530Z,25.27
2022-08-10T08:00:54.018Z,25.31
2022-08-10T08:03:22.510Z,25.32
2022-08-10T08:06:03.365Z,25.36
2022-08-10T08:08:37.155Z,25.33
2022-08-10T08:11:05.299Z,25.32
2022-08-10T08:13:33.299Z,25.31
2022-08-10T08:16:21.175Z,25.28
2022-08-10T08:19:03.842Z,25.11
2022-08-10T08:24:06.419Z,24.96
2022-08-10T08:24:32.351Z,24.94
2022-08-10T08:27:03.211Z,24.92
2022-08-10T08:29:35.096Z,24.96
2022-08-10T08:32:04.870Z,24.93
2022-08-10T08:34:33.297Z,24.91
2022-08-10T08:42:43.566Z,25.02
2022-08-10T08:45:17.080Z,25.11
2022-08-10T08:48:06.801Z,25.12
2022-08-10T08:50:41.415Z,25.19
2022-08-10T08:53:21.414Z,25.27
2022-08-10T08:56:05.736Z,25.34
2022-08-10T08:58:40.168Z,25.38
2022-08-10T09:01:18.371Z,25.36
2022-08-10T09:03:58.268Z,25.46
2022-08-10T09:06:56.585Z,25.50
2022-08-10T09:09:43.018Z,25.52
2022-08-10T09:12:21.750Z,25.60
2022-08-10T09:14:52.666Z,25.66
2022-08-10T09:17:22.826Z,25.72
2022-08-10T09:20:03.315Z,25.74
2022-08-10T09:22:33.654Z,25.77
2022-08-10T09:25:06.328Z,25.78
2022-08-10T09:27:37.239Z,25.81
2022-08-10T09:30:06.822Z,25.84
2022-08-10T09:36:14.871Z,25.90
2022-08-10T09:36:21.412Z,25.96
2022-08-10T09:38:29.046Z,26.03
2022-08-10T09:41:04.173Z,26.07
2022-08-10T09:43:43.329Z,26.12
2022-08-10T09:46:15.781Z,26.15
2022-08-10T09:48:46.881Z,26.17
2022-08-10T09:51:47.068Z,26.20
2022-08-10T09:54:37.620Z,26.23
2022-08-10T09:57:44.121Z,26.25
2022-08-10T10:00:08.369Z,26.24
2022-08-10T10:02:41.778Z,26.26
2022-08-10T10:05:17.879Z,26.27
2022-08-10T10:07:52.898Z,26.28
2022-08-10T10:10:23.565Z,26.30
2022-08-10T10:12:54.316Z,26.31
2022-08-10T10:15:27.707Z,26.33
2022-08-10T10:18:05.258Z,26.36
2022-08-10T10:20:36.805Z,26.37
2022-08-10T10:23:14.307Z,26.39
2022-08-10T10:25:50.688Z,26.41
2022-08-10T10:28:44.432Z,26.42
2022-08-10T10:31:20.151Z,26.44
2022-08-10T10:33:55.556Z,26.46
2022-08-10T10:36:23.595Z,26.47
2022-08-10T10:38:53.909Z,26.47
2022-08-10T10:41:31.183Z,26.49
2022-08-10T10:44:28.189Z,26.50
2022-08-10T10:47:02.861Z,26.50
2022-08-10T10:49:41.197Z,26.54
2022-08-10T10:52:16.327Z,26.55
2022-08-10T10:54:48.523Z,26.56
2022-08-10T10:57:20.957Z,26.56
2022-08-10T10:59:57.492Z,26.55
2022-08-10T11:02:40.040Z,26.57
2022-08-10T11:05:15.249Z,26.58
2022-08-10T11:07:53.172Z,26.59
2022-08-10T11:10:33.259Z,26.60
2022-08-10T11:14:26.588Z,26.61
2022-08-10T11:16:07.113Z,26.62
2022-08-10T11:18:43.290Z,26.63
2022-08-10T11:21:20.289Z,26.63
2022-08-10T11:24:48.195Z,26.63
2022-08-10T11:26:46.135Z,26.64
2022-08-10T11:29:19.534Z,26.63
2022-08-10T11:31:49.534Z,26.65
2022-08-10T11:34:49.125Z,26.67
2022-08-10T11:37:16.801Z,26.67
2022-08-10T11:39:49.498Z,26.68
2022-08-10T11:42:33.310Z,26.69
2022-08-10T11:45:05.433Z,26.69
2022-08-10T11:47:37.758Z,26.71
2022-08-10T11:50:09.944Z,26.70
2022-08-10T11:52:40.314Z,26.71
2022-08-10T11:55:12.673Z,26.71
2022-08-10T11:57:53.940Z,26.72
2022-08-10T12:00:23.245Z,26.71
2022-08-10T12:02:54.087Z,26.73
2022-08-10T12:05:24.056Z,26.73
2022-08-10T12:10:04.378Z,26.71
2022-08-10T12:11:00.096Z,26.73
2022-08-10T12:13:30.317Z,26.74
2022-08-10T12:16:05.285Z,26.74
2022-08-10T12:18:35.265Z,26.76
2022-08-10T12:21:05.567Z,26.76
2022-08-10T12:23:39.456Z,26.77
2022-08-10T12:26:10.142Z,26.77
2022-08-10T12:28:50.426Z,26.78
2022-08-10T12:31:22.020Z,26.79
2022-08-10T12:34:02.155Z,26.80
2022-08-10T12:36:34.864Z,26.82
2022-08-10T12:39:05.001Z,26.83
2022-08-10T12:41:43.613Z,26.86
2022-08-10T12:44:17.405Z,26.89
2022-08-10T12:46:53.382Z,26.90
2022-08-10T12:49:22.750Z,26.92
2022-08-10T12:51:54.025Z,26.94
2022-08-10T12:54:32.743Z,26.96
2022-08-10T12:57:01.949Z,26.97
2022-08-10T12:59:31.350Z,27.01
2022-08-10T13:02:06.318Z,27.02
2022-08-10T13:04:36.922Z,27.03
2022-08-10T13:07:06.317Z,27.04
2022-08-10T13:09:34.684Z,27.06
2022-08-10T13:12:39.148Z,27.06
2022-08-10T13:15:48.451Z,27.08
2022-08-10T13:18:03.213Z,27.08
2022-08-10T13:20:32.365Z,27.11
2022-08-10T13:23:01.143Z,27.12
2022-08-10T13:25:31.311Z,27.13
2022-08-10T13:28:34.767Z,27.14
2022-08-10T13:30:51.080Z,27.14
2022-08-10T13:34:39.727Z,27.15
2022-08-10T13:36:07.792Z,27.16
2022-08-10T13:38:35.807Z,27.17
2022-08-10T13:41:03.981Z,27.18
2022-08-10T13:43:32.053Z,27.19
2022-08-10T13:46:01.519Z,27.19
2022-08-10T13:48:30.692Z,27.20
2022-08-10T13:50:59.468Z,27.22
2022-08-10T13:53:31.068Z,27.24
2022-08-10T13:55:59.136Z,27.25
2022-08-10T13:58:31.257Z,27.26
2022-08-10T14:01:01.444Z,27.26
2022-08-10T14:03:29.623Z,27.27
2022-08-10T14:05:58.349Z,27.29
2022-08-10T14:08:28.763Z,27.30
2022-08-10T14:11:08.347Z,27.32
2022-08-10T14:13:39.248Z,27.34
2022-08-10T14:16:09.964Z,27.35
2022-08-10T14:18:38.544Z,27.37
2022-08-10T14:21:06.792Z,27.39
2022-08-10T14:23:40.823Z,27.42
2022-08-10T14:26:09.618Z,27.43
2022-08-10T14:28:40.489Z,27.44
2022-08-10T14:31:11.453Z,27.47
2022-08-10T14:33:39.526Z,27.48
2022-08-10T14:36:22.584Z,27.49
2022-08-10T14:38:52.905Z,27.51
2022-08-10T14:42:01.405Z,27.53
2022-08-10T14:44:14.963Z,27.55
2022-08-10T14:46:46.977Z,27.58
2022-08-10T14:49:25.534Z,27.60
2022-08-10T14:51:54.086Z,27.63
2022-08-10T14:54:29.560Z,27.65
2022-08-10T14:56:58.073Z,27.69
2022-08-10T14:59:45.872Z,27.64
2022-08-10T15:02:39.981Z,27.60
2022-08-10T15:05:09.124Z,27.58
2022-08-10T15:07:37.776Z,27.57
2022-08-10T15:10:07.019Z,27.56
2022-08-10T15:12:36.132Z,27.55
2022-08-10T15:15:05.514Z,27.53
2022-08-10T15:17:37.199Z,27.53
2022-08-10T15:20:13.252Z,27.52
2022-08-10T15:22:45.879Z,27.52
2022-08-10T15:25:19.471Z,27.52
2022-08-10T15:27:55.516Z,27.51
2022-08-10T15:30:30.237Z,27.51
2022-08-10T15:33:21.674Z,27.50
2022-08-10T15:36:24.199Z,27.49
2022-08-10T15:38:59.439Z,27.50
2022-08-10T15:41:59.519Z,27.50
2022-08-10T15:44:24.614Z,27.49
2022-08-10T15:46:55.020Z,27.51
2022-08-10T15:49:27.448Z,27.50
2022-08-10T15:52:01.728Z,27.50
2022-08-10T15:54:33.441Z,27.51
2022-08-10T15:57:03.769Z,27.49
2022-08-10T15:59:33.294Z,27.50
2022-08-10T16:02:15.948Z,27.50
2022-08-10T16:04:49.700Z,27.50
2022-08-10T16:07:19.778Z,27.49
2022-08-10T16:10:24.091Z,27.49
2022-08-10T16:12:40.166Z,27.49
2022-08-10T16:15:11.348Z,27.49
2022-08-10T16:17:54.403Z,27.49
2022-08-10T16:20:27.781Z,27.49
2022-08-10T16:22:57.771Z,27.48
2022-08-10T16:25:47.903Z,27.47
2022-08-10T16:28:22.979Z,27.46
2022-08-10T16:30:53.436Z,27.49
2022-08-10T16:33:24.460Z,27.50
2022-08-10T16:36:16.332Z,27.50
2022-08-10T16:38:45.232Z,27.49
2022-08-10T16:41:20.933Z,27.49
2022-08-10T16:44:01.681Z,27.49
2022-08-10T16:46:29.674Z,27.49
2022-08-10T16:48:57.928Z,27.49
2022-08-10T16:51:27.417Z,27.50
2022-08-10T16:53:55.520Z,27.49
2022-08-10T16:56:25.155Z,27.49
2022-08-10T16:58:56.041Z,27.48
2022-08-10T17:01:25.346Z,27.48
2022-08-10T17:04:06.113Z,27.48
2022-08-10T17:06:39.393Z,27.47
2022-08-10T17:09:08.324Z,27.47
2022-08-10T17:11:39.308Z,27.46
2022-08-10T17:14:09.313Z,27.46
2022-08-10T17:16:39.298Z,27.46
2022-08-10T17:19:11.875Z,27.44
2022-08-10T17:21:51.085Z,27.43
2022-08-10T17:24:21.464Z,27.43
2022-08-10T17:26:49.673Z,27.43
2022-08-10T17:29:57.490Z,27.43
2022-08-10T17:32:09.540Z,27.44
2022-08-10T17:34:38.663Z,27.43
2022-08-10T17:37:14.605Z,27.44
2022-08-10T17:39:44.773Z,27.44
2022-08-10T17:42:12.865Z,27.44
2022-08-10T17:44:40.980Z,27.45
2022-08-10T17:47:11.282Z,27.45
2022-08-10T17:49:39.837Z,27.45
2022-08-10T17:52:10.234Z,27.45
2022-08-10T17:54:40.431Z,27.44
2022-08-10T17:57:10.398Z,27.46
2022-08-10T17:59:38.722Z,27.45
2022-08-10T18:02:08.805Z,27.45
2022-08-10T18:04:41.997Z,27.45
2022-08-10T18:07:11.954Z,27.44
2022-08-10T18:09:41.279Z,27.45
2022-08-10T18:12:18.033Z,27.44
2022-08-10T18:14:47.952Z,27.46
2022-08-10T18:17:18.136Z,27.44
2022-08-10T18:19:47.962Z,27.46
2022-08-10T18:22:17.421Z,27.48
2022-08-10T18:24:45.592Z,27.49
2022-08-10T18:27:14.244Z,27.51
2022-08-10T18:29:44.288Z,27.53
2022-08-10T18:32:12.817Z,27.55
2022-08-10T18:34:40.833Z,27.55
2022-08-10T18:37:10.439Z,27.54
2022-08-10T18:39:40.855Z,27.47
2022-08-10T18:42:11.740Z,27.14
2022-08-10T18:44:42.196Z,27.15
2022-08-10T18:47:13.151Z,26.96
2022-08-10T18:49:58.122Z,26.86
2022-08-10T18:52:27.427Z,26.75
2022-08-10T18:55:04.590Z,26.55
2022-08-10T18:57:49.827Z,26.67
2022-08-10T19:00:18.578Z,26.67
2022-08-10T19:03:11.402Z,26.37
2022-08-10T19:06:00.700Z,26.18
2022-08-10T19:08:52.047Z,25.99
2022-08-10T19:11:35.682Z,25.94
2022-08-10T19:14:07.936Z,25.81
2022-08-10T19:16:39.705Z,25.81
2022-08-10T19:19:21.792Z,25.73
2022-08-10T19:21:55.047Z,25.60
2022-08-10T19:24:26.232Z,25.47
2022-08-10T19:27:00.519Z,25.41
2022-08-10T19:30:08.787Z,25.27
2022-08-10T19:32:37.129Z,25.07
2022-08-10T19:35:07.860Z,25.16
2022-08-10T19:37:59.984Z,25.33
2022-08-10T19:40:44.585Z,25.43
2022-08-10T19:43:30.880Z,25.65
2022-08-10T19:46:11.105Z,25.55
2022-08-10T19:48:42.266Z,25.57
2022-08-10T19:51:14.857Z,25.65
2022-08-10T19:53:48.747Z,25.50
2022-08-10T19:56:33.617Z,25.26
2022-08-10T19:59:07.924Z,24.89
2022-08-10T20:01:55.329Z,25.15
2022-08-10T20:04:31.665Z,25.21
2022-08-10T20:07:10.832Z,25.34
2022-08-10T20:09:43.502Z,25.50
2022-08-10T20:12:15.119Z,25.61
2022-08-10T20:14:49.015Z,25.59
2022-08-10T20:17:22.546Z,25.49
2022-08-10T20:19:54.738Z,25.32
2022-08-10T20:22:29.037Z,25.24
2022-08-10T20:25:01.585Z,25.19
2022-08-10T20:28:06.733Z,25.21
2022-08-10T20:30:23.352Z,25.28
2022-08-10T20:32:54.748Z,24.95
2022-08-10T20:35:25.791Z,25.18
2022-08-10T20:38:03.565Z,24.86
2022-08-10T20:40:35.547Z,25.00
2022-08-10T20:43:08.657Z,24.96
2022-08-10T20:46:06.807Z,25.13
2022-08-10T20:48:36.205Z,25.12
2022-08-10T20:51:06.870Z,25.18
2022-08-10T20:53:35.837Z,25.28
2022-08-10T20:56:21.594Z,25.36
2022-08-10T20:59:10.186Z,25.15
2022-08-10T21:02:07.498Z,25.10
2022-08-10T21:04:47.010Z,25.23
2022-08-10T21:07:43.996Z,25.28
2022-08-10T21:10:18.121Z,25.30
2022-08-10T21:12:52.069Z,25.17
2022-08-10T21:15:29.027Z,24.99
2022-08-10T21:18:20.735Z,24.83
2022-08-10T21:20:54.584Z,24.97
2022-08-10T21:23:24.868Z,25.05
2022-08-10T21:26:13.166Z,24.96
2022-08-10T21:29:09.570Z,24.78
2022-08-10T21:31:55.586Z,24.98
2022-08-10T21:34:35.698Z,24.81
2022-08-10T21:37:07.940Z,24.90
2022-08-10T21:39:49.701Z,24.93
2022-08-10T21:42:40.667Z,24.85
2022-08-10T21:45:58.778Z,24.98
2022-08-10T21:48:40.451Z,24.87
2022-08-10T21:52:02.190Z,24.76
2022-08-10T21:54:42.626Z,24.86
2022-08-10T21:57:43.130Z,24.90
2022-08-10T22:00:30.880Z,25.04
2022-08-10T22:06:23.419Z,25.26
2022-08-10T22:09:12.428Z,25.34
2022-08-10T22:12:00.986Z,25.39
2022-08-10T22:14:49.592Z,25.43
2022-08-10T22:18:03.142Z,25.47
2022-08-10T22:20:42.442Z,25.49
2022-08-10T22:23:34.763Z,25.52
2022-08-10T22:26:27.934Z,25.53
2022-08-10T22:29:14.550Z,25.56
2022-08-10T22:31:28.000Z,25.15
2022-08-10T22:32:09.500Z,25.60
2022-08-10T22:35:08.730Z,25.60
2022-08-10T22:37:59.882Z,25.59
2022-08-10T22:40:53.112Z,25.56
2022-08-10T22:43:42.692Z,25.57
2022-08-10T22:46:32.914Z,25.60
2022-08-10T22:48:59.874Z,25.60
2022-08-10T22:51:33.558Z,25.63
2022-08-10T22:54:30.506Z,25.62
2022-08-10T22:57:17.909Z,25.64
2022-08-10T22:59:47.282Z,25.65
2022-08-10T23:02:17.935Z,25.65
2022-08-10T23:04:48.312Z,25.65
2022-08-10T23:07:21.792Z,25.67
2022-08-10T23:10:00.795Z,25.69
2022-08-10T23:12:31.174Z,25.69
2022-08-10T23:15:18.160Z,25.67
2022-08-10T23:18:07.693Z,25.63
2022-08-10T23:20:36.784Z,25.61
2022-08-10T23:23:09.545Z,25.60
2022-08-10T23:25:43.739Z,25.58
2022-08-10T23:28:39.457Z,25.57
2022-08-10T23:31:15.891Z,25.49
2022-08-10T23:33:43.911Z,25.49
2022-08-10T23:36:33.682Z,25.49
2022-08-10T23:39:26.211Z,25.46
2022-08-10T23:41:53.056Z,25.39
2022-08-10T23:44:21.470Z,25.32
2022-08-10T23:46:50.889Z,25.33
2022-08-10T23:49:18.881Z,25.29
2022-08-10T23:51:55.354Z,25.26
2022-08-10T23:54:24.039Z,25.25
2022-08-10T23:56:53.046Z,25.23
2022-08-10T23:59:24.847Z,25.19
